Time;durP1;ratioP1;P1;durP2;ratioP2;P2;SDS_P1;SDS_P2;PMS_P1;PMS_P2;Temp;Humidity;BMP_temperature;BMP_pressure;BME280_temperature;BME280_humidity;BME280_pressure;Samples;Min_cycle;Max_cycle;Signal;HPM_P1;HPM_P2
2021/05/09 00:12:33;;;;;;;4.57;3.20;;;;;;;18.46;36.88;100662.59;30997811;28;20287;-60
2021/05/09 00:27:34;;;;;;;4.13;2.70;;;;;;;18.41;36.62;100658.53;31001149;28;20791;-60
2021/05/09 00:42:36;;;;;;;4.47;3.03;;;;;;;18.38;36.88;100657.97;31002347;28;20282;-61
2021/05/09 00:57:37;;;;;;;4.35;2.90;;;;;;;18.34;36.76;100633.69;31003169;28;20687;-63
2021/05/09 01:12:38;;;;;;;4.38;3.10;;;;;;;18.32;36.94;100629.53;30989672;28;20062;-63
2021/05/09 01:27:39;;;;;;;4.50;2.70;;;;;;;18.31;36.89;100617.34;30995893;28;20042;-63
2021/05/09 01:42:40;;;;;;;4.25;2.70;;;;;;;18.28;37.11;100600.03;30992424;28;20289;-63
2021/05/09 01:57:41;;;;;;;3.88;2.80;;;;;;;18.26;37.11;100595.88;30990840;28;20307;-63
2021/05/09 02:12:42;;;;;;;4.40;2.77;;;;;;;18.22;37.07;100579.50;30991197;28;20130;-62
2021/05/09 02:27:43;;;;;;;4.67;3.00;;;;;;;18.21;37.05;100569.94;30990490;28;20293;-62
2021/05/09 02:42:46;;;;;;;4.18;2.80;;;;;;;18.19;37.38;100575.34;30997215;28;20277;-64
2021/05/09 02:57:47;;;;;;;3.58;2.53;;;;;;;18.17;37.41;100565.91;31012214;28;20360;-63
2021/05/09 03:12:48;;;;;;;4.93;2.90;;;;;;;18.16;37.96;100577.38;31009381;28;20492;-64
2021/05/09 03:27:49;;;;;;;4.53;2.80;;;;;;;18.13;37.66;100577.66;31002490;28;20285;-64
2021/05/09 03:42:50;;;;;;;4.33;2.60;;;;;;;18.13;37.89;100567.13;31011978;28;20300;-63
2021/05/09 03:57:51;;;;;;;4.00;2.87;;;;;;;18.15;37.69;100571.28;31004488;28;20292;-63
2021/05/09 04:12:52;;;;;;;4.77;3.00;;;;;;;18.19;37.66;100545.56;31003719;28;20289;-63
2021/05/09 04:27:53;;;;;;;4.47;2.97;;;;;;;18.18;37.61;100539.44;31000823;28;20293;-63
2021/05/09 04:42:54;;;;;;;3.80;2.50;;;;;;;18.21;37.62;100549.72;30998775;28;20296;-63
2021/05/09 04:57:55;;;;;;;3.90;2.55;;;;;;;18.27;37.62;100537.00;30985415;28;20297;-62
2021/05/09 05:12:56;;;;;;;4.87;2.93;;;;;;;18.31;37.47;100547.16;30974878;28;20037;-62
2021/05/09 05:27:58;;;;;;;4.77;3.03;;;;;;;18.49;37.28;100546.53;30978613;28;20293;-64
2021/05/09 05:42:59;;;;;;;4.22;2.53;;;;;;;18.65;37.29;100562.69;31008145;28;20298;-64
2021/05/09 05:58:00;;;;;;;4.47;2.73;;;;;;;18.73;37.19;100559.38;30992329;28;20035;-63
2021/05/09 06:13:01;;;;;;;4.17;2.90;;;;;;;18.75;37.35;100550.38;30989985;28;20675;-64
2021/05/09 06:28:03;;;;;;;3.63;2.53;;;;;;;18.88;36.89;100552.81;31011975;28;20297;-63
2021/05/09 06:43:04;;;;;;;4.57;2.95;;;;;;;18.98;36.95;100556.28;31013725;28;20664;-62
2021/05/09 06:58:07;;;;;;;5.63;2.70;;;;;;;19.07;36.95;100546.72;31014144;28;20030;-64
2021/05/09 07:13:08;;;;;;;6.03;3.03;;;;;;;19.22;36.53;100542.75;30967012;28;20030;-64
2021/05/09 07:28:10;;;;;;;4.97;2.50;;;;;;;19.52;35.93;100535.69;31008778;28;20041;-64
2021/05/09 07:43:12;;;;;;;5.95;2.85;;;;;;;19.69;36.31;100528.88;30997935;28;20289;-67
2021/05/09 07:58:17;;;;;;;8.77;2.75;;;;;;;19.65;37.45;100520.41;30929171;28;20130;-66
2021/05/09 08:13:18;;;;;;;5.85;2.83;;;;;;;19.54;39.09;100523.19;30951062;28;20444;-65
2021/05/09 08:28:19;;;;;;;8.93;2.80;;;;;;;19.52;39.33;100522.50;30927892;28;20495;-66
2021/05/09 08:43:20;;;;;;;5.33;2.10;;;;;;;19.57;39.37;100507.09;30960919;28;20285;-66
2021/05/09 08:58:21;;;;;;;5.83;2.70;;;;;;;19.68;38.92;100487.66;30981612;28;20285;-64
2021/05/09 09:13:29;;;;;;;3.47;1.67;;;;;;;20.11;36.39;100486.31;30983651;28;20300;-63
2021/05/09 09:28:33;;;;;;;5.50;2.90;;;;;;;20.61;35.51;100472.78;30995525;28;20308;-64
2021/05/09 09:43:34;;;;;;;6.05;1.90;;;;;;;20.85;35.01;100471.41;31021897;28;20050;-64
2021/05/09 09:58:54;;;;;;;6.57;2.40;;;;;;;21.20;34.90;100445.94;31012427;28;20548;-65
2021/05/09 10:13:55;;;;;;;5.40;2.20;;;;;;;21.51;34.37;100452.50;30987866;28;20320;-63
2021/05/09 10:28:56;;;;;;;4.50;2.00;;;;;;;21.86;33.61;100436.69;30986208;28;20030;-65
2021/05/09 10:43:57;;;;;;;4.10;1.80;;;;;;;22.07;34.02;100415.94;30957617;28;20046;-64
2021/05/09 10:58:59;;;;;;;6.57;2.00;;;;;;;22.35;34.51;100400.69;30996277;28;20762;-63
2021/05/09 11:14:00;;;;;;;6.63;1.70;;;;;;;22.57;34.26;100404.56;30994495;28;20730;-61
2021/05/09 11:29:04;;;;;;;11.25;3.83;;;;;;;22.92;30.74;100367.34;31001574;28;20077;-62
2021/05/09 11:44:05;;;;;;;2.72;1.17;;;;;;;23.28;28.58;100369.66;30986460;28;20038;-61
2021/05/09 11:59:06;;;;;;;3.60;1.70;;;;;;;23.53;28.77;100350.03;30970601;28;20038;-60
2021/05/09 12:14:07;;;;;;;3.13;1.30;;;;;;;23.79;28.72;100344.50;31000928;28;20787;-60
2021/05/09 12:29:18;;;;;;;4.07;1.47;;;;;;;23.82;28.33;100314.13;30994345;28;20290;-61
2021/05/09 12:44:22;;;;;;;3.65;1.88;;;;;;;23.46;28.31;100297.88;31000532;28;20302;-60
2021/05/09 12:59:24;;;;;;;3.92;1.63;;;;;;;22.91;30.08;100291.50;30952852;28;20388;-59
2021/05/09 13:14:26;;;;;;;5.80;1.60;;;;;;;22.24;32.04;100292.47;30983529;28;20058;-58
2021/05/09 13:29:27;;;;;;;2.73;1.37;;;;;;;22.03;32.42;100286.75;30994546;28;20046;-59
2021/05/09 13:44:28;;;;;;;3.80;1.27;;;;;;;21.90;32.65;100272.19;30995747;28;20301;-57
2021/05/09 13:59:29;;;;;;;3.80;1.30;;;;;;;21.71;33.06;100269.78;30994779;28;20285;-60
2021/05/09 14:14:32;;;;;;;2.83;1.38;;;;;;;21.50;33.40;100241.13;30994626;28;20320;-60
2021/05/09 14:29:33;;;;;;;3.42;1.50;;;;;;;21.36;33.67;100229.31;30908595;28;20038;-59
2021/05/09 14:44:36;;;;;;;3.90;1.50;;;;;;;21.27;33.83;100233.72;30886349;28;20297;-57
2021/05/09 14:59:37;;;;;;;2.92;1.30;;;;;;;21.16;34.02;100219.94;30908757;28;20336;-59
2021/05/09 15:14:38;;;;;;;3.43;1.23;;;;;;;21.04;34.24;100198.25;30891256;28;20043;-59
2021/05/09 15:29:39;;;;;;;3.55;1.35;;;;;;;20.95;34.19;100172.78;30975443;28;20412;-59
2021/05/09 15:44:43;;;;;;;2.20;1.17;;;;;;;20.90;34.25;100162.69;31008652;28;20118;-60
2021/05/09 15:59:45;;;;;;;2.33;1.20;;;;;;;20.76;34.37;100172.03;30989415;28;20683;-59
2021/05/09 16:14:46;;;;;;;2.72;1.38;;;;;;;20.74;35.07;100162.59;31006137;28;20085;-61
2021/05/09 16:29:47;;;;;;;2.65;1.20;;;;;;;20.83;34.28;100135.25;30916822;28;20050;-58
2021/05/09 16:44:48;;;;;;;3.00;1.27;;;;;;;20.83;34.65;100111.47;30883634;28;20423;-57
2021/05/09 16:59:49;;;;;;;1.90;1.00;;;;;;;20.75;34.82;100114.06;30895617;28;20270;-60
2021/05/09 17:14:50;;;;;;;2.77;1.30;;;;;;;20.61;35.09;100100.47;30879899;28;20696;-59
2021/05/09 17:29:51;;;;;;;2.20;1.27;;;;;;;20.54;35.41;100111.78;30965553;28;20320;-58
2021/05/09 17:44:52;;;;;;;2.23;1.20;;;;;;;20.45;35.72;100100.34;31000549;28;20050;-57
2021/05/09 17:59:53;;;;;;;2.50;1.50;;;;;;;20.39;35.99;100112.38;30990115;28;20292;-60
2021/05/09 18:14:59;;;;;;;4.07;1.90;;;;;;;20.50;36.90;100098.91;30962314;28;20308;-60
2021/05/09 18:30:00;;;;;;;4.27;2.50;;;;;;;20.63;37.94;100089.75;30941130;28;20298;-60
2021/05/09 18:45:00;;;;;;;4.77;2.80;;;;;;;20.71;37.94;100118.84;30952350;28;20049;-59
2021/05/09 19:00:04;;;;;;;4.57;2.87;;;;;;;20.60;38.24;100127.88;30968367;28;20286;-60
2021/05/09 19:15:05;;;;;;;4.07;2.47;;;;;;;20.52;38.91;100138.34;30964997;28;20352;-57
2021/05/09 19:30:07;;;;;;;4.22;2.80;;;;;;;20.48;39.23;100145.75;30970472;28;20034;-58
2021/05/09 19:45:09;;;;;;;5.32;3.00;;;;;;;20.44;39.61;100141.75;30984993;28;20113;-59
2021/05/09 20:00:14;;;;;;;4.03;2.65;;;;;;;20.41;39.79;100141.22;30978687;28;20500;-60
2021/05/09 20:15:15;;;;;;;4.80;3.20;;;;;;;20.41;39.88;100147.34;30938409;28;20485;-61
2021/05/09 20:30:16;;;;;;;5.80;3.47;;;;;;;20.42;40.31;100151.63;30931766;28;20058;-57
2021/05/09 20:45:17;;;;;;;5.18;3.63;;;;;;;20.40;40.75;100156.25;30940704;28;20472;-59
2021/05/09 21:00:18;;;;;;;5.63;3.40;;;;;;;20.38;41.01;100152.09;30936762;28;20042;-60
2021/05/09 21:15:19;;;;;;;4.70;3.63;;;;;;;20.32;41.42;100132.44;30930746;28;20318;-58
2021/05/09 21:30:21;;;;;;;6.27;3.53;;;;;;;20.25;41.50;100132.22;30925646;28;20034;-59
2021/05/09 21:45:22;;;;;;;5.40;3.97;;;;;;;20.29;41.31;100130.09;30944781;28;20663;-55
2021/05/09 22:00:39;;;;;;;6.73;4.00;;;;;;;20.25;40.78;100121.69;30982635;28;20484;-58
2021/05/09 22:15:40;;;;;;;6.15;3.92;;;;;;;20.22;41.19;100118.50;30983418;28;20301;-58
2021/05/09 22:30:41;;;;;;;6.33;4.13;;;;;;;20.19;41.20;100113.53;30971266;28;20034;-58
2021/05/09 22:45:42;;;;;;;8.00;4.20;;;;;;;20.16;41.72;100096.22;30981716;28;20339;-57
2021/05/09 23:00:43;;;;;;;8.27;3.80;;;;;;;20.12;41.97;100092.22;31083889;28;20281;-58
2021/05/09 23:15:44;;;;;;;7.22;3.97;;;;;;;20.09;42.18;100082.00;31140728;28;20026;-58
2021/05/09 23:30:45;;;;;;;5.93;3.67;;;;;;;20.05;42.46;100072.72;31072931;28;20399;-58
2021/05/09 23:45:46;;;;;;;5.30;3.80;;;;;;;20.03;42.60;100077.31;31010729;28;20309;-58
